Time;durP1;ratioP1;P1;durP2;ratioP2;P2;SDS_P1;SDS_P2;PMS_P1;PMS_P2;Temp;Humidity;BMP_temperature;BMP_pressure;BME280_temperature;BME280_humidity;BME280_pressure;Samples;Min_cycle;Max_cycle;Signal;HPM_P1;HPM_P2
2023/07/06 00:01:48;;;;;;;3.00;2.57;;;15.60;99.90;;;;;;4990602;28;20175;-37
2023/07/06 00:04:15;;;;;;;3.60;2.20;;;15.60;99.90;;;;;;4995708;28;20179;-40
2023/07/06 00:06:41;;;;;;;3.27;2.47;;;15.50;99.90;;;;;;4995694;28;20191;-39
2023/07/06 00:09:07;;;;;;;2.97;2.30;;;15.40;99.90;;;;;;4995742;28;20218;-37
2023/07/06 00:11:36;;;;;;;3.30;2.40;;;15.40;99.90;;;;;;4994261;28;20207;-37
2023/07/06 00:14:03;;;;;;;3.97;2.70;;;15.30;99.90;;;;;;4994816;28;20283;-38
2023/07/06 00:16:29;;;;;;;3.23;2.33;;;15.20;99.90;;;;;;4993718;28;20183;-40
2023/07/06 00:18:58;;;;;;;4.20;2.40;;;15.20;99.90;;;;;;5019384;28;20313;-38
2023/07/06 00:21:29;;;;;;;4.53;2.50;;;15.20;99.90;;;;;;5011727;28;20187;-38
2023/07/06 00:23:57;;;;;;;2.77;2.20;;;15.20;99.90;;;;;;4998322;28;20195;-37
2023/07/06 00:26:23;;;;;;;3.20;2.17;;;15.10;99.90;;;;;;4995284;28;20210;-41
2023/07/06 00:28:49;;;;;;;3.17;1.90;;;15.00;99.90;;;;;;4995080;28;20203;-37
2023/07/06 00:31:21;;;;;;;2.90;2.60;;;14.80;99.90;;;;;;4995099;28;20245;-38
2023/07/06 00:33:48;;;;;;;4.83;2.50;;;14.70;99.90;;;;;;5003553;28;20183;-38
2023/07/06 00:36:15;;;;;;;4.57;2.60;;;14.60;99.90;;;;;;4995190;28;20176;-36
2023/07/06 00:38:42;;;;;;;4.17;2.20;;;14.50;99.90;;;;;;4994950;28;20219;-37
2023/07/06 00:41:08;;;;;;;4.43;2.50;;;14.50;99.90;;;;;;4995221;28;20245;-36
2023/07/06 00:43:54;;;;;;;2.67;2.30;;;14.50;99.90;;;;;;4995713;28;20197;-41
2023/07/06 00:46:23;;;;;;;2.73;2.40;;;14.50;99.90;;;;;;4994468;28;20183;-38
2023/07/06 00:48:51;;;;;;;3.57;2.40;;;14.50;99.90;;;;;;5012051;28;20207;-38
2023/07/06 00:51:32;;;;;;;4.00;3.00;;;14.60;99.90;;;;;;5011056;28;20207;-40
2023/07/06 00:54:12;;;;;;;4.60;2.70;;;14.50;99.90;;;;;;4993574;28;20211;-39
2023/07/06 00:56:42;;;;;;;3.43;2.43;;;14.60;99.90;;;;;;4994425;28;20184;-38
2023/07/06 00:59:12;;;;;;;5.07;2.63;;;14.50;99.90;;;;;;4994988;28;20195;-36
2023/07/06 01:01:42;;;;;;;3.30;2.83;;;14.50;99.90;;;;;;4994789;28;20179;-39
2023/07/06 01:04:11;;;;;;;6.30;2.57;;;14.50;99.90;;;;;;4993599;28;20208;-34
2023/07/06 01:07:04;;;;;;;3.80;2.10;;;14.50;99.90;;;;;;5002741;28;20178;-38
2023/07/06 01:09:30;;;;;;;2.67;2.23;;;14.40;99.90;;;;;;5008682;28;20198;-36
2023/07/06 01:11:57;;;;;;;3.33;2.60;;;14.40;99.90;;;;;;5012345;28;20230;-40
2023/07/06 01:14:26;;;;;;;3.10;2.37;;;14.30;99.90;;;;;;5007880;28;20180;-36
2023/07/06 01:17:11;;;;;;;5.70;2.90;;;14.30;99.90;;;;;;5006632;28;20302;-38
2023/07/06 01:19:55;;;;;;;2.93;2.30;;;14.20;99.90;;;;;;5026741;28;20257;-42
2023/07/06 01:22:40;;;;;;;3.03;2.77;;;14.20;99.90;;;;;;5001483;28;20193;-38
2023/07/06 01:25:43;;;;;;;3.53;2.57;;;14.10;99.90;;;;;;4993777;28;20187;-40
2023/07/06 01:28:21;;;;;;;2.87;2.50;;;14.10;99.90;;;;;;4992310;28;20256;-39
2023/07/06 01:31:18;;;;;;;3.77;3.10;;;14.00;99.90;;;;;;5005634;28;20179;-39
2023/07/06 01:34:20;;;;;;;3.40;2.30;;;13.90;99.90;;;;;;4982607;28;20184;-37
2023/07/06 01:36:59;;;;;;;3.60;2.80;;;13.80;99.90;;;;;;4944433;28;20218;-41
2023/07/06 01:39:28;;;;;;;2.63;2.30;;;13.70;99.90;;;;;;4994047;28;20187;-38
2023/07/06 01:42:14;;;;;;;4.40;2.53;;;13.70;99.90;;;;;;4994257;28;20203;-38
2023/07/06 01:44:47;;;;;;;4.50;2.60;;;13.70;99.90;;;;;;4992861;28;20175;-39
2023/07/06 01:47:16;;;;;;;2.87;2.50;;;13.70;99.90;;;;;;4993547;28;20202;-37
2023/07/06 01:49:42;;;;;;;3.53;2.40;;;13.70;99.90;;;;;;4998958;28;20183;-36
2023/07/06 01:52:31;;;;;;;2.90;2.30;;;13.70;99.90;;;;;;5000787;28;20230;-39
2023/07/06 01:55:11;;;;;;;3.23;2.53;;;13.60;99.90;;;;;;5006090;28;20237;-39
2023/07/06 01:57:54;;;;;;;4.20;2.40;;;13.60;99.90;;;;;;5000504;28;20208;-40
2023/07/06 02:00:22;;;;;;;3.90;2.60;;;13.60;99.90;;;;;;5000424;28;20174;-38
2023/07/06 02:02:51;;;;;;;4.43;2.83;;;13.60;99.90;;;;;;5001291;28;20187;-37
2023/07/06 02:05:19;;;;;;;3.10;2.50;;;13.60;99.90;;;;;;5009365;28;20190;-39
2023/07/06 02:07:45;;;;;;;3.07;2.43;;;13.60;99.90;;;;;;5012316;28;20203;-41
2023/07/06 02:10:18;;;;;;;3.03;2.17;;;13.60;99.90;;;;;;5014394;28;20185;-40
2023/07/06 02:12:47;;;;;;;4.43;2.83;;;13.60;99.90;;;;;;5001682;28;20310;-40
2023/07/06 02:15:18;;;;;;;3.37;2.60;;;13.60;99.90;;;;;;5009423;28;20193;-40
2023/07/06 02:17:48;;;;;;;3.27;2.50;;;13.50;99.90;;;;;;5002204;28;20199;-41
2023/07/06 02:20:17;;;;;;;3.17;2.50;;;13.60;99.90;;;;;;4998071;28;20270;-38
2023/07/06 02:22:44;;;;;;;4.43;2.60;;;13.50;99.90;;;;;;4990155;28;20188;-38
2023/07/06 02:25:10;;;;;;;3.20;2.27;;;13.50;99.90;;;;;;5007259;28;20183;-38
2023/07/06 02:27:36;;;;;;;4.23;2.60;;;13.50;99.90;;;;;;4992973;28;20207;-40
2023/07/06 02:30:04;;;;;;;3.43;2.63;;;13.40;99.90;;;;;;4993081;28;20287;-39
2023/07/06 02:32:32;;;;;;;4.43;2.73;;;13.40;99.90;;;;;;4992624;28;20217;-40
2023/07/06 02:34:58;;;;;;;4.03;2.60;;;13.40;99.90;;;;;;4990866;28;20187;-41
2023/07/06 02:37:24;;;;;;;2.90;2.53;;;13.30;99.90;;;;;;5009225;28;20191;-41
2023/07/06 02:39:51;;;;;;;3.83;2.47;;;13.30;99.90;;;;;;4989738;28;20208;-41
2023/07/06 02:42:18;;;;;;;4.37;2.57;;;13.20;99.90;;;;;;5007453;28;20193;-37
2023/07/06 02:44:44;;;;;;;3.20;2.40;;;13.20;99.90;;;;;;5003576;28;20190;-38
2023/07/06 02:47:11;;;;;;;3.30;2.70;;;13.20;99.90;;;;;;5001864;28;20270;-40
2023/07/06 02:49:37;;;;;;;4.30;2.70;;;13.20;99.90;;;;;;5012625;28;20186;-39
2023/07/06 02:52:04;;;;;;;4.30;2.87;;;13.20;99.90;;;;;;5009091;28;20202;-39
2023/07/06 02:54:32;;;;;;;3.33;2.43;;;13.20;99.90;;;;;;4998955;28;20189;-39
2023/07/06 02:57:00;;;;;;;3.03;2.40;;;13.10;99.90;;;;;;4981737;28;20191;-40
2023/07/06 02:59:29;;;;;;;4.00;2.40;;;13.10;99.90;;;;;;4998011;28;20205;-41
2023/07/06 03:01:59;;;;;;;4.90;2.30;;;13.10;99.90;;;;;;4973669;28;20210;-42
2023/07/06 03:04:27;;;;;;;5.20;2.67;;;13.00;99.90;;;;;;5008583;28;20227;-37
2023/07/06 03:06:55;;;;;;;3.73;2.20;;;13.00;99.90;;;;;;5021326;28;20194;-38
2023/07/06 03:09:23;;;;;;;3.00;2.60;;;12.90;99.90;;;;;;4989814;28;20258;-39
2023/07/06 03:11:50;;;;;;;3.13;2.50;;;12.90;99.90;;;;;;5004539;28;20209;-41
2023/07/06 03:14:16;;;;;;;3.27;2.53;;;12.80;99.90;;;;;;4993052;28;20186;-35
2023/07/06 03:16:44;;;;;;;3.33;2.60;;;12.80;99.90;;;;;;4992606;28;20181;-40
2023/07/06 03:19:12;;;;;;;3.57;3.07;;;12.80;99.90;;;;;;5018532;28;20891;-37
2023/07/06 03:21:38;;;;;;;3.47;2.70;;;12.70;99.90;;;;;;5008845;28;20208;-40
2023/07/06 03:24:08;;;;;;;4.43;2.70;;;12.70;99.90;;;;;;4996573;28;20225;-41
2023/07/06 03:26:36;;;;;;;3.37;2.70;;;12.70;99.90;;;;;;5002730;28;20237;-40
2023/07/06 03:29:05;;;;;;;3.97;2.90;;;12.70;99.90;;;;;;5005545;28;20209;-38
2023/07/06 03:31:32;;;;;;;3.50;2.80;;;12.70;99.90;;;;;;4992377;28;20236;-39
2023/07/06 03:33:58;;;;;;;3.60;2.67;;;12.70;99.90;;;;;;4992616;28;20171;-39
2023/07/06 03:36:24;;;;;;;3.43;2.70;;;12.70;99.90;;;;;;4994583;28;20216;-38
2023/07/06 03:38:50;;;;;;;3.90;2.87;;;12.70;99.90;;;;;;4995380;28;20218;-39
2023/07/06 03:41:18;;;;;;;5.37;2.70;;;12.70;99.90;;;;;;5005762;28;20197;-40
2023/07/06 03:43:56;;;;;;;5.53;2.70;;;12.80;99.90;;;;;;4998313;28;20235;-37
2023/07/06 03:46:36;;;;;;;2.93;2.63;;;12.80;99.90;;;;;;4995466;28;20225;-38
2023/07/06 03:49:10;;;;;;;3.43;2.83;;;12.70;99.90;;;;;;5028240;28;20204;-41
2023/07/06 03:51:56;;;;;;;5.53;2.83;;;12.60;99.90;;;;;;5014360;28;20222;-39
2023/07/06 03:54:34;;;;;;;3.00;2.70;;;12.50;99.90;;;;;;5008466;28;20233;-38
2023/07/06 03:57:05;;;;;;;4.37;2.77;;;12.40;99.90;;;;;;5007132;28;20190;-39
2023/07/06 03:59:33;;;;;;;3.93;2.60;;;12.40;99.90;;;;;;5002386;28;20268;-38
2023/07/06 04:02:00;;;;;;;3.67;2.83;;;12.40;99.90;;;;;;5012467;28;20224;-39
2023/07/06 04:04:28;;;;;;;4.47;2.63;;;12.40;99.90;;;;;;5004513;28;20192;-38
2023/07/06 04:06:55;;;;;;;3.73;2.90;;;12.50;99.90;;;;;;5013611;28;20181;-38
2023/07/06 04:09:25;;;;;;;3.27;2.97;;;12.50;99.90;;;;;;4996284;28;20266;-38
2023/07/06 04:11:52;;;;;;;7.73;2.87;;;12.50;99.90;;;;;;5006449;28;20205;-39
2023/07/06 04:14:29;;;;;;;3.93;3.20;;;12.50;99.90;;;;;;4993885;28;20178;-39
2023/07/06 04:16:56;;;;;;;3.07;2.70;;;12.50;99.90;;;;;;5006893;28;20179;-39
2023/07/06 04:19:24;;;;;;;3.73;2.67;;;12.50;99.90;;;;;;5019693;28;20187;-41
2023/07/06 04:21:51;;;;;;;4.43;2.90;;;12.40;99.90;;;;;;4995568;28;20190;-38
2023/07/06 04:24:17;;;;;;;4.40;3.30;;;12.50;99.90;;;;;;4993533;28;20220;-40
2023/07/06 04:26:46;;;;;;;6.43;3.10;;;12.50;99.90;;;;;;5005105;28;20248;-39
2023/07/06 04:29:14;;;;;;;5.03;2.70;;;12.60;99.90;;;;;;4994538;28;20185;-40
2023/07/06 04:31:40;;;;;;;3.37;2.87;;;12.70;99.90;;;;;;5004552;28;20214;-39
2023/07/06 04:34:07;;;;;;;6.00;3.00;;;12.70;99.90;;;;;;5008245;28;20179;-39
2023/07/06 04:36:33;;;;;;;4.13;2.80;;;12.80;99.90;;;;;;5000496;28;20237;-40
2023/07/06 04:39:00;;;;;;;3.40;3.10;;;12.80;99.90;;;;;;4986549;28;20214;-41
2023/07/06 04:41:27;;;;;;;4.17;3.10;;;12.80;99.90;;;;;;4983584;28;20190;-39
2023/07/06 04:43:55;;;;;;;5.10;3.17;;;12.90;99.90;;;;;;5005287;28;20325;-37
2023/07/06 04:46:23;;;;;;;4.00;3.40;;;13.00;99.90;;;;;;5019867;28;20205;-38
2023/07/06 04:48:50;;;;;;;3.60;2.90;;;13.00;99.90;;;;;;4996631;28;20305;-42
2023/07/06 04:51:17;;;;;;;4.53;2.83;;;13.10;99.90;;;;;;4993089;28;20210;-39
2023/07/06 04:53:43;;;;;;;3.47;2.93;;;13.10;99.90;;;;;;4993473;28;20193;-41
2023/07/06 04:56:09;;;;;;;7.27;3.43;;;13.10;99.90;;;;;;5010662;28;20269;-40
2023/07/06 04:58:36;;;;;;;3.60;2.97;;;13.10;99.90;;;;;;4991443;28;20230;-39
2023/07/06 05:01:06;;;;;;;4.53;3.07;;;13.10;99.90;;;;;;5006335;28;20268;-40
2023/07/06 05:03:32;;;;;;;3.27;2.97;;;13.20;99.90;;;;;;5010379;28;20191;-40
2023/07/06 05:06:04;;;;;;;4.37;3.00;;;13.20;99.90;;;;;;4994616;28;20182;-40
2023/07/06 05:08:34;;;;;;;3.67;3.07;;;13.20;99.90;;;;;;5001755;28;20214;-38
2023/07/06 05:11:03;;;;;;;3.87;3.07;;;13.20;99.90;;;;;;5006018;28;20183;-40
2023/07/06 05:13:29;;;;;;;3.80;3.00;;;13.30;99.90;;;;;;4991879;28;20214;-41
2023/07/06 05:15:55;;;;;;;5.17;3.17;;;13.30;99.90;;;;;;5005554;28;20186;-36
2023/07/06 05:18:21;;;;;;;5.27;2.93;;;13.40;99.90;;;;;;4993581;28;20210;-38
2023/07/06 05:20:52;;;;;;;3.97;3.00;;;13.50;99.90;;;;;;5004851;28;20192;-38
2023/07/06 05:23:18;;;;;;;6.57;3.20;;;13.50;99.90;;;;;;5025404;28;20191;-36
2023/07/06 05:25:44;;;;;;;3.77;2.90;;;13.60;99.90;;;;;;4994042;28;20193;-40
2023/07/06 05:28:10;;;;;;;5.70;2.90;;;13.70;99.90;;;;;;4993905;28;20289;-39
2023/07/06 05:30:38;;;;;;;5.03;3.07;;;13.80;99.90;;;;;;4993759;28;20183;-41
2023/07/06 05:33:04;;;;;;;3.03;2.70;;;14.00;99.90;;;;;;5010794;28;20203;-40
2023/07/06 05:35:29;;;;;;;5.53;3.20;;;14.00;99.90;;;;;;4991096;28;20195;-41
2023/07/06 05:37:56;;;;;;;4.43;2.93;;;14.10;99.90;;;;;;5004410;28;20228;-41
2023/07/06 05:40:22;;;;;;;4.17;3.30;;;14.20;99.90;;;;;;5001920;28;20187;-37
2023/07/06 05:42:47;;;;;;;4.43;3.27;;;14.30;99.90;;;;;;5000047;28;20211;-38
2023/07/06 05:45:14;;;;;;;5.70;3.30;;;14.40;99.90;;;;;;4990646;28;20203;-41
2023/07/06 05:47:40;;;;;;;4.93;3.50;;;14.50;99.90;;;;;;4998478;28;20207;-43
2023/07/06 05:50:07;;;;;;;4.73;3.23;;;14.60;99.90;;;;;;5017737;28;20179;-37
2023/07/06 05:52:34;;;;;;;4.10;3.23;;;14.70;99.90;;;;;;5026288;28;20215;-41
2023/07/06 05:55:00;;;;;;;5.00;3.13;;;14.80;99.90;;;;;;5002908;28;20180;-42
2023/07/06 05:57:27;;;;;;;6.20;3.30;;;15.00;99.90;;;;;;4992026;28;20286;-40
2023/07/06 05:59:58;;;;;;;3.90;3.17;;;15.20;99.90;;;;;;5008823;28;20237;-38
2023/07/06 06:02:26;;;;;;;5.43;3.43;;;15.20;99.90;;;;;;5006054;28;20195;-41
2023/07/06 06:04:54;;;;;;;6.47;3.17;;;15.40;99.90;;;;;;5003523;28;20210;-40
2023/07/06 06:07:22;;;;;;;4.07;3.20;;;15.50;99.90;;;;;;5006817;28;20353;-38
2023/07/06 06:09:49;;;;;;;4.27;3.43;;;15.60;99.90;;;;;;4990136;28;20271;-40
2023/07/06 06:12:20;;;;;;;6.07;3.13;;;15.80;99.90;;;;;;5015305;28;20242;-40
2023/07/06 06:14:48;;;;;;;6.13;3.07;;;15.90;99.90;;;;;;4990800;28;20266;-42
2023/07/06 06:17:15;;;;;;;3.87;3.40;;;16.20;99.90;;;;;;4993448;28;20202;-44
2023/07/06 06:19:42;;;;;;;5.00;3.07;;;16.30;99.90;;;;;;4997060;28;20194;-41
2023/07/06 06:22:11;;;;;;;3.33;2.90;;;16.50;99.90;;;;;;5009904;28;20198;-37
2023/07/06 06:24:37;;;;;;;4.53;3.03;;;16.70;99.90;;;;;;4990523;28;20199;-42
2023/07/06 06:27:04;;;;;;;3.43;3.00;;;16.90;99.90;;;;;;5001573;28;20335;-40
2023/07/06 06:29:32;;;;;;;6.77;3.33;;;17.10;99.90;;;;;;5000082;28;20222;-44
2023/07/06 06:31:59;;;;;;;4.80;3.00;;;17.20;99.90;;;;;;4993111;28;20215;-41
2023/07/06 06:34:25;;;;;;;7.28;3.10;;;17.30;99.90;;;;;;4993427;28;20218;-39
2023/07/06 06:36:51;;;;;;;6.10;2.97;;;17.40;99.90;;;;;;4993162;28;20176;-38
2023/07/06 06:39:19;;;;;;;3.63;2.72;;;17.50;99.90;;;;;;4992723;28;20206;-39
2023/07/06 06:41:46;;;;;;;4.50;2.88;;;17.70;99.90;;;;;;5001235;28;20187;-41
2023/07/06 06:44:15;;;;;;;5.32;2.85;;;17.90;99.90;;;;;;4993240;28;20194;-42
2023/07/06 06:46:41;;;;;;;4.82;3.15;;;18.10;99.90;;;;;;4992622;28;20217;-39
2023/07/06 06:49:07;;;;;;;8.07;2.97;;;18.30;99.90;;;;;;5023949;28;20206;-40
2023/07/06 06:51:33;;;;;;;7.10;2.97;;;18.40;99.90;;;;;;4998396;28;20274;-41
2023/07/06 06:53:59;;;;;;;3.83;2.92;;;18.50;99.90;;;;;;5000895;28;20186;-42
2023/07/06 06:56:25;;;;;;;3.78;3.08;;;18.60;99.90;;;;;;4989548;28;20179;-42
2023/07/06 06:58:52;;;;;;;2.85;2.47;;;18.60;99.90;;;;;;4991353;28;20227;-41
2023/07/06 07:01:18;;;;;;;3.80;3.00;;;18.60;99.90;;;;;;5005782;28;20197;-39
2023/07/06 07:03:45;;;;;;;3.22;2.90;;;18.70;99.90;;;;;;4993133;28;20215;-42
2023/07/06 07:06:12;;;;;;;5.03;2.58;;;18.70;99.90;;;;;;5005911;28;20194;-40
2023/07/06 07:08:49;;;;;;;4.80;3.47;;;19.00;99.90;;;;;;5005617;28;20211;-42
2023/07/06 07:11:20;;;;;;;3.78;2.63;;;19.20;99.90;;;;;;5004392;28;20215;-41
2023/07/06 07:13:51;;;;;;;3.33;2.60;;;19.40;99.90;;;;;;5002694;28;20177;-39
2023/07/06 07:16:17;;;;;;;3.03;2.17;;;19.60;99.90;;;;;;5009445;28;20230;-42
2023/07/06 07:18:43;;;;;;;4.38;2.72;;;19.70;99.90;;;;;;4988498;28;20195;-41
2023/07/06 07:21:10;;;;;;;5.32;2.67;;;19.80;99.90;;;;;;5004459;28;20191;-41
2023/07/06 07:23:43;;;;;;;4.75;3.00;;;20.00;99.90;;;;;;4996476;28;20209;-42
2023/07/06 07:26:14;;;;;;;2.65;1.90;;;20.10;99.90;;;;;;4996265;28;20183;-42
2023/07/06 07:28:40;;;;;;;3.50;2.53;;;20.30;99.90;;;;;;4993395;28;20211;-40
2023/07/06 07:31:11;;;;;;;3.38;2.40;;;20.40;99.90;;;;;;5004436;28;20215;-41
2023/07/06 07:33:37;;;;;;;4.00;2.50;;;20.50;99.90;;;;;;4984247;28;20180;-42
2023/07/06 07:36:04;;;;;;;3.42;2.60;;;20.70;99.90;;;;;;5007496;28;20176;-41
2023/07/06 07:38:31;;;;;;;3.58;2.67;;;20.80;99.90;;;;;;4994374;28;20215;-39
2023/07/06 07:40:59;;;;;;;2.50;2.30;;;21.00;99.90;;;;;;5003232;28;20191;-41
2023/07/06 07:43:28;;;;;;;3.92;2.60;;;21.20;99.90;;;;;;4990648;28;20224;-39
2023/07/06 07:46:00;;;;;;;3.33;2.22;;;21.20;99.90;;;;;;5002160;28;20187;-42
2023/07/06 07:48:27;;;;;;;3.50;2.33;;;21.30;99.90;;;;;;5002565;28;20207;-40
2023/07/06 07:50:56;;;;;;;2.67;2.35;;;21.20;99.90;;;;;;5012193;28;20187;-40
2023/07/06 07:53:25;;;;;;;4.13;2.30;;;21.20;99.90;;;;;;4996251;28;20187;-42
2023/07/06 07:55:53;;;;;;;4.80;2.83;;;21.20;99.90;;;;;;4995866;28;20234;-40
2023/07/06 07:58:19;;;;;;;3.35;2.40;;;21.20;99.90;;;;;;4995594;28;20211;-43
2023/07/06 08:00:55;;;;;;;3.47;2.28;;;21.30;99.90;;;;;;5000821;28;20188;-42
2023/07/06 08:03:23;;;;;;;3.63;2.35;;;21.40;99.90;;;;;;5005844;28;20187;-39
2023/07/06 08:05:55;;;;;;;3.92;2.17;;;21.70;99.90;;;;;;5004581;28;20187;-41
2023/07/06 08:08:25;;;;;;;4.07;2.42;;;21.90;99.90;;;;;;4991760;28;20223;-43
2023/07/06 08:10:55;;;;;;;3.55;2.13;;;21.90;99.90;;;;;;5004805;28;20180;-41
2023/07/06 08:13:22;;;;;;;4.47;2.30;;;21.90;99.90;;;;;;4992670;28;20183;-41
2023/07/06 08:15:48;;;;;;;2.60;2.28;;;22.10;99.90;;;;;;4991506;28;20203;-42
2023/07/06 08:18:15;;;;;;;2.67;2.17;;;22.30;99.90;;;;;;5015275;28;20198;-40
2023/07/06 08:20:45;;;;;;;3.40;2.25;;;22.50;99.90;;;;;;5008561;28;20184;-42
2023/07/06 08:23:11;;;;;;;3.25;2.30;;;22.60;99.90;;;;;;5002814;28;20187;-41
2023/07/06 08:25:42;;;;;;;2.47;1.90;;;22.80;99.90;;;;;;4992009;28;20264;-44
2023/07/06 08:28:10;;;;;;;2.50;1.90;;;23.00;99.90;;;;;;5003522;28;20219;-43
2023/07/06 08:30:38;;;;;;;3.78;2.28;;;23.20;99.90;;;;;;4990540;28;20287;-42
2023/07/06 08:33:04;;;;;;;4.88;2.17;;;23.20;99.90;;;;;;5000211;28;20208;-41
2023/07/06 08:35:30;;;;;;;3.20;1.98;;;23.40;99.90;;;;;;4992032;28;20187;-43
2023/07/06 08:37:57;;;;;;;3.17;1.92;;;23.30;99.90;;;;;;5001310;28;20216;-41
2023/07/06 08:40:30;;;;;;;2.45;2.08;;;23.50;99.90;;;;;;4988233;28;20728;-40
2023/07/06 08:42:57;;;;;;;4.07;2.33;;;23.50;99.90;;;;;;5001718;28;20187;-41
2023/07/06 08:45:39;;;;;;;3.70;2.17;;;23.60;99.90;;;;;;4988817;28;20188;-42
2023/07/06 08:48:09;;;;;;;3.42;2.10;;;23.60;99.90;;;;;;5002552;28;20200;-43
2023/07/06 08:50:36;;;;;;;4.15;2.08;;;23.80;99.90;;;;;;4983107;28;20199;-40
2023/07/06 08:53:10;;;;;;;4.35;2.25;;;23.90;99.90;;;;;;5005314;28;20237;-41
2023/07/06 08:55:36;;;;;;;3.05;2.15;;;23.90;99.90;;;;;;4992441;28;20274;-41
2023/07/06 08:58:03;;;;;;;4.75;2.22;;;24.10;99.90;;;;;;4991773;28;20215;-39
2023/07/06 09:00:31;;;;;;;3.55;2.03;;;24.40;99.90;;;;;;4983323;28;20211;-42
2023/07/06 09:03:09;;;;;;;2.95;2.35;;;24.40;99.90;;;;;;5004493;28;20192;-41
2023/07/06 09:05:46;;;;;;;2.63;2.35;;;24.60;99.90;;;;;;5002634;28;20194;-40
2023/07/06 09:08:15;;;;;;;2.70;2.17;;;24.80;99.90;;;;;;4994754;28;20230;-42
2023/07/06 09:10:42;;;;;;;3.70;2.38;;;24.90;99.90;;;;;;4992010;28;20191;-43
2023/07/06 09:13:26;;;;;;;5.03;2.40;;;25.00;99.90;;;;;;5002431;28;20208;-43
2023/07/06 09:16:00;;;;;;;3.08;2.10;;;25.00;99.90;;;;;;5019641;28;20209;-41
2023/07/06 09:18:29;;;;;;;2.72;2.40;;;25.10;99.90;;;;;;5002679;28;20211;-43
2023/07/06 09:20:58;;;;;;;2.88;2.28;;;25.30;99.90;;;;;;5018928;28;20187;-43
2023/07/06 09:23:24;;;;;;;4.13;2.60;;;25.30;99.90;;;;;;4993804;28;20183;-41
2023/07/06 09:25:50;;;;;;;4.00;2.50;;;25.60;99.90;;;;;;4999636;28;20213;-42
2023/07/06 09:28:23;;;;;;;3.25;2.60;;;25.60;99.90;;;;;;5007054;28;20261;-42
2023/07/06 09:31:04;;;;;;;3.03;2.42;;;25.70;99.90;;;;;;4999286;28;20221;-41
2023/07/06 09:33:30;;;;;;;3.70;2.35;;;25.60;99.90;;;;;;5009370;28;20191;-43
2023/07/06 09:35:57;;;;;;;2.70;2.20;;;25.10;99.90;;;;;;5003377;28;20178;-42
2023/07/06 09:38:24;;;;;;;2.90;2.60;;;25.00;99.90;;;;;;4994815;28;20215;-42
2023/07/06 09:40:52;;;;;;;2.50;2.15;;;24.90;99.90;;;;;;5013537;28;20187;-43
2023/07/06 09:43:29;;;;;;;5.80;2.58;;;24.70;99.90;;;;;;5021553;28;20191;-43
2023/07/06 09:45:57;;;;;;;4.97;2.38;;;24.40;99.90;;;;;;5020976;28;20181;-42
2023/07/06 09:48:28;;;;;;;3.90;2.55;;;24.30;99.90;;;;;;5000617;28;20206;-41
2023/07/06 09:51:12;;;;;;;3.67;2.45;;;24.30;99.90;;;;;;5004806;28;20185;-43
2023/07/06 09:53:53;;;;;;;3.50;2.42;;;24.30;99.90;;;;;;5000750;28;20644;-43
2023/07/06 09:56:19;;;;;;;2.58;2.38;;;24.50;99.90;;;;;;5018962;28;20195;-41
2023/07/06 09:58:49;;;;;;;4.10;2.50;;;24.70;99.90;;;;;;5005549;28;20199;-42
2023/07/06 10:01:34;;;;;;;3.55;2.55;;;24.70;99.90;;;;;;5003278;28;20183;-43
2023/07/06 10:04:28;;;;;;;4.18;2.60;;;24.90;99.90;;;;;;5003397;28;20256;-42
2023/07/06 10:07:23;;;;;;;3.00;2.60;;;25.10;99.90;;;;;;4999691;28;20191;-43
2023/07/06 10:09:54;;;;;;;5.32;2.60;;;25.30;99.90;;;;;;5020409;28;20290;-43
2023/07/06 10:12:38;;;;;;;3.20;2.80;;;25.50;99.90;;;;;;5003452;28;20276;-43
2023/07/06 10:15:17;;;;;;;2.80;2.53;;;25.90;99.90;;;;;;5030618;28;20209;-43
2023/07/06 10:17:51;;;;;;;3.58;2.70;;;26.10;99.90;;;;;;4998387;28;20254;-42
2023/07/06 10:20:23;;;;;;;2.78;2.50;;;26.00;99.60;;;;;;5001825;28;20190;-42
2023/07/06 10:23:15;;;;;;;3.00;2.40;;;26.10;99.90;;;;;;4997526;28;20191;-43
2023/07/06 10:25:58;;;;;;;2.97;2.70;;;26.00;99.90;;;;;;4996117;28;20180;-43
2023/07/06 10:28:38;;;;;;;2.95;2.65;;;26.30;99.40;;;;;;5005895;28;20242;-43
2023/07/06 10:31:08;;;;;;;3.80;2.42;;;26.40;99.80;;;;;;5002862;28;20179;-42
2023/07/06 10:33:38;;;;;;;4.97;2.42;;;26.60;98.60;;;;;;4995724;28;20180;-43
2023/07/06 10:36:10;;;;;;;3.33;2.50;;;26.60;98.50;;;;;;5002777;28;20186;-43
2023/07/06 10:38:36;;;;;;;4.20;2.47;;;26.80;99.00;;;;;;4993229;28;20218;-42
2023/07/06 10:41:11;;;;;;;4.13;2.40;;;26.90;98.00;;;;;;5002053;28;20270;-41
2023/07/06 10:43:40;;;;;;;3.17;2.75;;;26.50;98.10;;;;;;5003472;28;20202;-41
2023/07/06 10:46:30;;;;;;;4.03;2.70;;;26.60;98.10;;;;;;4993823;28;20184;-43
2023/07/06 10:48:57;;;;;;;3.80;2.50;;;26.80;98.80;;;;;;4986097;28;20203;-43
2023/07/06 10:51:27;;;;;;;4.60;2.80;;;26.90;96.80;;;;;;4991701;28;20219;-43
2023/07/06 10:54:18;;;;;;;2.65;2.42;;;26.90;96.80;;;;;;5013181;28;20183;-43
2023/07/06 10:56:48;;;;;;;3.42;2.90;;;26.80;97.30;;;;;;4993462;28;20261;-42
2023/07/06 10:59:18;;;;;;;3.38;2.40;;;27.00;96.60;;;;;;5005065;28;20192;-44
2023/07/06 11:02:00;;;;;;;2.63;2.35;;;27.20;97.50;;;;;;5017564;28;20218;-43
2023/07/06 11:04:41;;;;;;;3.47;2.65;;;27.60;98.40;;;;;;5023564;28;20187;-41
2023/07/06 11:07:12;;;;;;;3.20;2.60;;;27.90;96.70;;;;;;4999158;28;20200;-43
2023/07/06 11:10:17;;;;;;;2.95;2.65;;;28.10;95.50;;;;;;5006572;28;20195;-42
2023/07/06 11:12:54;;;;;;;2.55;2.35;;;28.10;94.50;;;;;;5023873;28;20203;-44
2023/07/06 11:15:29;;;;;;;2.60;2.30;;;27.80;95.50;;;;;;5020268;28;20187;-41
2023/07/06 11:17:58;;;;;;;3.53;2.47;;;27.70;95.10;;;;;;5017203;28;20197;-42
2023/07/06 11:20:29;;;;;;;3.25;2.78;;;27.50;95.80;;;;;;5012349;28;20187;-43
2023/07/06 11:23:02;;;;;;;4.97;2.35;;;27.40;95.60;;;;;;4992943;28;20222;-42
2023/07/06 11:25:31;;;;;;;5.68;2.47;;;27.40;95.60;;;;;;5006195;28;20337;-43
2023/07/06 11:28:07;;;;;;;3.45;2.60;;;27.60;94.90;;;;;;5007959;28;20211;-43
2023/07/06 11:30:54;;;;;;;4.57;2.80;;;27.10;93.90;;;;;;5002632;28;20188;-43
2023/07/06 11:33:43;;;;;;;3.28;2.40;;;27.10;94.20;;;;;;4995516;28;20289;-42
2023/07/06 11:36:27;;;;;;;3.22;2.40;;;27.20;93.00;;;;;;5007306;28;20186;-43
2023/07/06 11:39:19;;;;;;;3.47;2.80;;;27.10;92.50;;;;;;5012135;28;20223;-42
2023/07/06 11:42:25;;;;;;;2.60;2.28;;;27.20;93.40;;;;;;4994881;28;20270;-43
2023/07/06 11:44:55;;;;;;;3.03;2.65;;;27.20;93.00;;;;;;5004847;28;20411;-43
2023/07/06 11:47:48;;;;;;;2.88;2.53;;;27.00;91.60;;;;;;5008921;28;20203;-43
2023/07/06 11:50:17;;;;;;;3.30;2.72;;;27.10;92.90;;;;;;5002977;28;20215;-41
2023/07/06 11:53:08;;;;;;;3.30;2.83;;;27.20;93.20;;;;;;4989951;28;20227;-42
2023/07/06 11:55:50;;;;;;;3.35;2.70;;;27.20;93.70;;;;;;5001082;28;20267;-44
2023/07/06 11:59:36;;;;;;;3.17;2.88;;;27.50;92.80;;;;;;4993917;28;20234;-43
2023/07/06 12:01:32;;;;;;;3.50;2.70;;;27.60;93.10;;;;;;4998115;28;20192;-43
2023/07/06 12:04:02;;;;;;;3.35;2.53;;;27.50;92.00;;;;;;4994854;28;20190;-43
2023/07/06 12:06:30;;;;;;;3.85;3.10;;;27.50;92.40;;;;;;4995435;28;20183;-43
2023/07/06 12:09:01;;;;;;;3.03;2.72;;;27.80;92.40;;;;;;5004274;28;20203;-43
2023/07/06 12:11:28;;;;;;;2.60;2.40;;;27.70;91.30;;;;;;5003496;28;20233;-43
2023/07/06 12:13:56;;;;;;;4.15;2.65;;;27.70;91.40;;;;;;4988780;28;20179;-41
2023/07/06 12:16:27;;;;;;;3.70;2.75;;;27.80;91.30;;;;;;5007811;28;20250;-43
2023/07/06 12:19:05;;;;;;;3.38;2.50;;;27.60;92.20;;;;;;4992441;28;20207;-40
2023/07/06 12:21:42;;;;;;;4.15;2.75;;;27.40;93.10;;;;;;5009727;28;20242;-43
2023/07/06 12:24:14;;;;;;;4.97;2.90;;;27.30;93.20;;;;;;5009913;28;20183;-43
2023/07/06 12:26:48;;;;;;;2.83;2.42;;;27.20;93.20;;;;;;5010113;28;20183;-44
2023/07/06 12:29:15;;;;;;;4.35;2.97;;;27.10;93.40;;;;;;5019844;28;20178;-44
2023/07/06 12:31:46;;;;;;;3.40;2.85;;;27.00;94.00;;;;;;5008338;28;20211;-43
2023/07/06 12:34:16;;;;;;;3.55;2.65;;;27.20;92.50;;;;;;5007751;28;20180;-42
2023/07/06 12:36:43;;;;;;;3.13;2.67;;;27.50;91.40;;;;;;4990664;28;20660;-43
2023/07/06 12:39:15;;;;;;;4.20;3.00;;;27.60;90.90;;;;;;5010597;28;20206;-41
2023/07/06 12:41:42;;;;;;;2.90;2.60;;;27.50;91.50;;;;;;5005321;28;20237;-43
2023/07/06 12:44:17;;;;;;;4.82;2.60;;;27.30;92.30;;;;;;4988966;28;20186;-41
2023/07/06 12:46:51;;;;;;;3.20;2.63;;;27.30;92.10;;;;;;5011298;28;20285;-43
2023/07/06 12:49:22;;;;;;;3.30;2.65;;;27.30;92.50;;;;;;4999678;28;20240;-44
2023/07/06 12:51:54;;;;;;;2.88;2.47;;;27.50;93.50;;;;;;4996715;28;20210;-40
2023/07/06 12:54:23;;;;;;;3.47;2.55;;;27.50;92.10;;;;;;4995766;28;20180;-42
2023/07/06 12:57:15;;;;;;;3.83;2.97;;;27.40;92.40;;;;;;5001556;28;20195;-43
2023/07/06 12:59:41;;;;;;;3.45;2.50;;;27.40;91.90;;;;;;5001799;28;20187;-42
2023/07/06 13:02:22;;;;;;;3.65;3.00;;;27.80;92.30;;;;;;5007438;28;20185;-43
2023/07/06 13:04:50;;;;;;;2.72;2.53;;;28.00;92.40;;;;;;4992806;28;20195;-43
2023/07/06 13:07:26;;;;;;;3.00;2.70;;;28.50;91.90;;;;;;5004292;28;20211;-43
2023/07/06 13:09:53;;;;;;;3.33;2.65;;;28.80;90.30;;;;;;5010192;28;20178;-41